KFTK/FTK METAR and TAF weather

Enter ICAO airport designator
Station Type Date Time Source
KFTK METAR 2020/08/06 00:56 UTC NOAA

KFTK 060056Z AUTO 35006KT 10SM CLR 20/17 A3006 RMK AO2 SLP178 T01950167


Station Type Date Time Source
KFTK Decoded METAR 2020/08/06 00:56 UTC NOAA

Fort Knox, KY, United States (KFTK) 37-54N 085-58W 230M
Aug 05, 2020 - 08:56 PM EDT / 2020.08.06 0056 UTC
Wind: from the N (350 degrees) at 7 MPH (6 KT):0
Visibility: 10 mile(s):0
Sky conditions: clear
Temperature: 67.1 F (19.5 C)
Dew Point: 62.1 F (16.7 C)
Relative Humidity: 83%
Pressure (altimeter): 30.06 in. Hg (1017 hPa)
ob: KFTK 060056Z AUTO 35006KT 10SM CLR 20/17 A3006 RMK AO2 SLP178 T01950167
cycle: 1

Station Type Date Time Source
KFTK TAF 2020/08/06 01:06 UTC NOAA

TAF TAF KFTK 060100Z 0601/0707 VRB06KT 9999 BKN040 QNH3004INS TX26/0621Z TN17/0611Z

Example: see airport list